createdAt,value
2022-11-22T00:00:27.890Z,94171.41
2022-11-22T00:02:54.849Z,94171.00
2022-11-22T00:05:22.103Z,94156.72
2022-11-22T00:07:48.946Z,94153.00
2022-11-22T00:10:16.346Z,94146.03
2022-11-22T00:12:43.668Z,94155.25
2022-11-22T00:15:11.401Z,94154.50
2022-11-22T00:17:38.529Z,94137.97
2022-11-22T00:20:07.228Z,94136.84
2022-11-22T00:22:35.611Z,94136.16
2022-11-22T00:25:04.284Z,94138.00
2022-11-22T00:27:30.898Z,94129.16
2022-11-22T00:29:57.909Z,94135.13
2022-11-22T00:32:24.540Z,94135.84
2022-11-22T00:34:51.214Z,94127.41
2022-11-22T00:37:18.945Z,94138.44
2022-11-22T00:39:45.588Z,94142.13
2022-11-22T00:42:12.223Z,94131.44
2022-11-22T00:44:38.963Z,94115.97
2022-11-22T00:47:05.668Z,94123.34
2022-11-22T00:49:32.593Z,94131.13
2022-11-22T00:51:59.607Z,94117.50
2022-11-22T00:54:26.301Z,94114.19
2022-11-22T00:56:52.953Z,94121.59
2022-11-22T00:59:19.651Z,94131.53
2022-11-22T01:01:46.396Z,94144.41
2022-11-22T01:04:13.136Z,94139.63
2022-11-22T01:06:39.869Z,94145.13
2022-11-22T01:09:06.546Z,94140.31
2022-11-22T01:11:33.246Z,94129.66
2022-11-22T01:14:00.785Z,94144.75
2022-11-22T01:16:27.758Z,94152.88
2022-11-22T01:18:54.402Z,94149.59
2022-11-22T01:21:21.053Z,94158.47
2022-11-22T01:23:47.814Z,94153.31
2022-11-22T01:26:14.530Z,94139.69
2022-11-22T01:28:41.204Z,94151.44
2022-11-22T01:31:07.915Z,94140.03
2022-11-22T01:33:34.617Z,94140.75
2022-11-22T01:36:01.325Z,94133.03
2022-11-22T01:38:27.968Z,94133.75
2022-11-22T01:40:55.065Z,94131.94
2022-11-22T01:43:26.528Z,94136.00
2022-11-22T01:45:55.853Z,94133.81
2022-11-22T01:48:46.218Z,94132.34
2022-11-22T01:51:31.093Z,94136.03
2022-11-22T01:54:00.871Z,94142.66
2022-11-22T01:56:29.862Z,94151.13
2022-11-22T01:59:04.891Z,94157.34
2022-11-22T02:01:32.627Z,94154.78
2022-11-22T02:04:01.519Z,94161.03
2022-11-22T02:07:02.580Z,94167.28
2022-11-22T02:09:30.247Z,94166.94
2022-11-22T02:12:01.285Z,94169.91
2022-11-22T02:14:32.211Z,94158.13
2022-11-22T02:16:58.862Z,94158.13
2022-11-22T02:19:39.368Z,94144.53
2022-11-22T02:22:37.049Z,94141.63
2022-11-22T02:25:14.526Z,94147.88
2022-11-22T02:27:41.734Z,94150.13
2022-11-22T02:30:09.616Z,94155.28
2022-11-22T02:32:36.292Z,94161.06
2022-11-22T02:35:03.337Z,94151.19
2022-11-22T02:37:32.846Z,94157.75
2022-11-22T02:40:04.975Z,94159.56
2022-11-22T02:42:33.499Z,94163.88
2022-11-22T02:45:00.180Z,94150.19
2022-11-22T02:47:27.009Z,94160.09
2022-11-22T02:49:55.348Z,94168.84
2022-11-22T02:52:22.059Z,94173.47
2022-11-22T02:54:49.302Z,94157.75
2022-11-22T02:57:16.108Z,94165.84
2022-11-22T02:59:42.985Z,94183.34
2022-11-22T03:02:09.678Z,94173.56
2022-11-22T03:04:36.393Z,94176.06
2022-11-22T03:07:04.584Z,94189.19
2022-11-22T03:09:32.652Z,94190.63
2022-11-22T03:11:59.788Z,94198.69
2022-11-22T03:14:26.411Z,94188.81
2022-11-22T03:16:53.196Z,94206.31
2022-11-22T03:19:20.202Z,94205.09
2022-11-22T03:21:46.931Z,94224.09
2022-11-22T03:24:14.042Z,94192.19
2022-11-22T03:26:40.732Z,94193.03
2022-11-22T03:29:07.445Z,94206.94
2022-11-22T03:31:34.085Z,94213.28
2022-11-22T03:34:00.840Z,94200.25
2022-11-22T03:36:27.570Z,94197.66
2022-11-22T03:38:54.261Z,94212.75
2022-11-22T03:41:21.051Z,94197.75
2022-11-22T03:43:47.749Z,94200.72
2022-11-22T03:46:15.936Z,94208.81
2022-11-22T03:48:42.695Z,94206.97
2022-11-22T03:51:09.715Z,94205.88
2022-11-22T03:53:36.517Z,94197.53
2022-11-22T03:56:04.221Z,94206.31
2022-11-22T03:58:31.048Z,94210.78
2022-11-22T04:00:58.032Z,94225.75
2022-11-22T04:03:24.691Z,94217.06
2022-11-22T04:05:51.367Z,94232.16
2022-11-22T04:08:18.118Z,94225.22
2022-11-22T04:10:44.947Z,94255.28
2022-11-22T04:13:11.613Z,94253.56
2022-11-22T04:15:38.224Z,94256.53
2022-11-22T04:18:05.007Z,94262.63
2022-11-22T04:20:50.442Z,94271.06
2022-11-22T04:23:19.769Z,94277.31
2022-11-22T04:25:49.014Z,94280.44
2022-11-22T04:28:18.521Z,94288.16
2022-11-22T04:31:04.210Z,94287.75
2022-11-22T04:33:31.135Z,94291.78
2022-11-22T04:35:57.832Z,94298.03
2022-11-22T04:38:25.048Z,94295.78
2022-11-22T04:40:52.072Z,94305.09
2022-11-22T04:43:43.438Z,94313.63
2022-11-22T04:46:10.598Z,94313.81
2022-11-22T04:48:37.400Z,94322.28
2022-11-22T04:51:23.736Z,94322.69
2022-11-22T04:53:50.523Z,94337.75
2022-11-22T04:56:17.625Z,94342.09
2022-11-22T04:58:44.603Z,94347.53
2022-11-22T05:01:11.896Z,94348.75
2022-11-22T05:03:38.776Z,94354.25
2022-11-22T05:06:06.184Z,94363.69
2022-11-22T05:08:33.066Z,94374.00
2022-11-22T05:11:00.007Z,94375.84
2022-11-22T05:13:32.531Z,94373.53
2022-11-22T05:16:00.602Z,94377.28
2022-11-22T05:18:28.877Z,94375.53
2022-11-22T05:20:56.058Z,94385.31
2022-11-22T05:23:42.226Z,94400.19
2022-11-22T05:26:12.879Z,94411.91
2022-11-22T05:28:39.928Z,94418.94
2022-11-22T05:31:11.707Z,94418.91
2022-11-22T05:33:41.424Z,94426.69
2022-11-22T05:36:08.919Z,94424.56
2022-11-22T05:38:37.816Z,94437.78
2022-11-22T05:41:09.743Z,94437.84
2022-11-22T05:43:36.903Z,94439.38
2022-11-22T05:46:22.532Z,94451.69
2022-11-22T05:48:50.934Z,94476.72
2022-11-22T05:51:21.229Z,94481.81
2022-11-22T05:53:48.249Z,94486.63
2022-11-22T05:56:20.444Z,94491.44
2022-11-22T05:58:47.442Z,94495.38
2022-11-22T06:01:17.017Z,94497.06
2022-11-22T06:03:43.875Z,94498.31
2022-11-22T06:06:11.139Z,94511.97
2022-11-22T06:08:41.187Z,94521.06
2022-11-22T06:11:16.234Z,94527.34
2022-11-22T06:13:46.030Z,94537.88
2022-11-22T06:16:13.541Z,94541.81
2022-11-22T06:18:40.386Z,94551.38
2022-11-22T06:21:11.021Z,94555.78
2022-11-22T06:23:37.791Z,94569.69
2022-11-22T06:26:10.003Z,94571.53
2022-11-22T06:28:38.293Z,94587.00
2022-11-22T06:31:07.964Z,94588.06
2022-11-22T06:33:35.274Z,94597.28
2022-11-22T06:36:03.775Z,94587.25
2022-11-22T06:38:30.491Z,94588.75
2022-11-22T06:41:08.579Z,94595.81
2022-11-22T06:43:37.173Z,94609.75
2022-11-22T06:46:05.104Z,94640.00
2022-11-22T06:48:36.909Z,94652.16
2022-11-22T06:51:06.011Z,94684.63
2022-11-22T06:53:50.084Z,94693.44
2022-11-22T06:56:23.034Z,94707.38
2022-11-22T06:58:51.413Z,94717.69
2022-11-22T07:01:24.205Z,94720.94
2022-11-22T07:03:51.193Z,94721.00
2022-11-22T07:06:19.273Z,94726.75
2022-11-22T07:08:46.783Z,94739.78
2022-11-22T07:11:16.305Z,94749.34
2022-11-22T07:13:43.996Z,94736.47
2022-11-22T07:16:13.127Z,94745.19
2022-11-22T07:18:40.761Z,94780.50
2022-11-22T07:21:13.110Z,94791.56
2022-11-22T07:23:44.862Z,94803.19
2022-11-22T07:26:12.872Z,94803.28
2022-11-22T07:28:40.030Z,94827.97
2022-11-22T07:31:09.085Z,94834.22
2022-11-22T07:33:35.945Z,94826.41
2022-11-22T07:36:06.536Z,94807.88
2022-11-22T07:38:34.057Z,94822.59
2022-11-22T07:41:01.470Z,94865.47
2022-11-22T07:43:28.635Z,94869.13
2022-11-22T07:46:06.560Z,94876.88
2022-11-22T07:48:33.253Z,94885.34
2022-11-22T07:51:05.260Z,94882.03
2022-11-22T07:53:32.228Z,94898.31
2022-11-22T07:56:02.312Z,94896.38
2022-11-22T07:58:29.036Z,94910.44
2022-11-22T08:01:02.107Z,94911.53
2022-11-22T08:03:29.430Z,94937.31
2022-11-22T08:06:04.265Z,94941.38
2022-11-22T08:08:31.598Z,94938.16
2022-11-22T08:10:58.496Z,94944.81
2022-11-22T08:13:26.825Z,94956.19
2022-11-22T08:15:54.853Z,94973.91
2022-11-22T08:18:22.493Z,94984.66
2022-11-22T08:20:49.234Z,95015.97
2022-11-22T08:23:15.921Z,95037.78
2022-11-22T08:25:42.762Z,95036.78
2022-11-22T08:28:09.501Z,94987.97
2022-11-22T08:30:36.198Z,94967.16
2022-11-22T08:33:02.959Z,94970.97
2022-11-22T08:35:29.737Z,94942.75
2022-11-22T08:37:58.069Z,94942.88
2022-11-22T08:40:24.857Z,94916.63
2022-11-22T08:42:54.714Z,94925.69
2022-11-22T08:45:21.652Z,94926.44
2022-11-22T08:47:49.207Z,94951.38
2022-11-22T08:50:17.850Z,94946.03
2022-11-22T08:52:44.677Z,94939.56
2022-11-22T08:55:11.424Z,94951.38
2022-11-22T08:57:38.280Z,94958.78
2022-11-22T09:00:06.732Z,94965.16
2022-11-22T09:02:33.421Z,94989.03
2022-11-22T09:05:00.130Z,94997.59
2022-11-22T09:10:15.081Z,95017.97
2022-11-22T09:12:45.871Z,95001.69
2022-11-22T09:15:13.258Z,94996.19
2022-11-22T09:17:40.411Z,95006.50
2022-11-22T09:20:07.613Z,95011.50
2022-11-22T09:22:34.985Z,95020.38
2022-11-22T09:25:02.028Z,95032.81
2022-11-22T09:27:28.972Z,95022.81
2022-11-22T09:29:55.724Z,95031.78
2022-11-22T09:32:22.563Z,95036.13
2022-11-22T09:34:49.376Z,95043.47
2022-11-22T09:37:18.685Z,95049.38
2022-11-22T09:39:48.460Z,95046.69
2022-11-22T09:42:34.548Z,95053.75
2022-11-22T09:45:07.332Z,95031.63
2022-11-22T09:48:04.199Z,95049.28
2022-11-22T09:50:56.037Z,95033.44
2022-11-22T09:53:50.044Z,95039.88
2022-11-22T09:56:20.033Z,95061.16
2022-11-22T09:58:55.389Z,95096.38
2022-11-22T10:01:35.025Z,95093.59
2022-11-22T10:04:08.442Z,95080.25
2022-11-22T10:06:39.416Z,95105.94
2022-11-22T10:09:38.672Z,95117.56
2022-11-22T10:12:11.706Z,95175.66
2022-11-22T10:14:57.010Z,95200.38
2022-11-22T10:17:54.929Z,95194.34
2022-11-22T10:20:24.394Z,95174.28
2022-11-22T10:22:52.513Z,95190.09
2022-11-22T10:25:22.580Z,95113.13
2022-11-22T10:28:06.309Z,95117.09
2022-11-22T10:30:39.767Z,95103.91
2022-11-22T10:33:21.657Z,95138.13
2022-11-22T10:36:22.093Z,95098.91
2022-11-22T10:39:22.757Z,95114.56
2022-11-22T10:42:24.332Z,95080.75
2022-11-22T10:45:16.064Z,95078.16
2022-11-22T10:48:06.352Z,95083.72
2022-11-22T10:50:51.784Z,95101.13
2022-11-22T10:53:43.411Z,95148.97
2022-11-22T10:56:26.813Z,95143.06
2022-11-22T10:59:12.626Z,95104.88
2022-11-22T11:01:55.869Z,95153.91
2022-11-22T11:04:24.495Z,95128.59
2022-11-22T11:07:13.058Z,95091.41
2022-11-22T11:12:49.392Z,95095.22
2022-11-22T11:15:31.232Z,95070.06
2022-11-22T11:18:04.056Z,95081.41
2022-11-22T11:20:38.545Z,95067.13
2022-11-22T11:23:20.714Z,95083.03
2022-11-22T11:25:49.197Z,95108.44
2022-11-22T11:28:24.637Z,95112.94
2022-11-22T11:30:55.471Z,95085.84
2022-11-22T11:33:30.786Z,95107.28
2022-11-22T11:36:29.822Z,95118.09
2022-11-22T11:38:57.966Z,95111.81
2022-11-22T11:41:35.298Z,95127.22
2022-11-22T11:44:05.872Z,95160.66
2022-11-22T11:46:41.736Z,95157.75
2022-11-22T11:49:11.394Z,95165.59
2022-11-22T11:51:40.221Z,95150.91
2022-11-22T11:54:19.950Z,95137.69
2022-11-22T11:57:01.094Z,95139.69
2022-11-22T11:59:44.982Z,95168.94
2022-11-22T12:02:11.714Z,95145.06
2022-11-22T12:04:49.697Z,95149.22
2022-11-22T12:07:25.212Z,95137.81
2022-11-22T12:09:54.222Z,95116.97
2022-11-22T12:12:20.952Z,95145.13
2022-11-22T12:17:51.713Z,95124.84
2022-11-22T12:20:25.193Z,95114.97
2022-11-22T12:23:03.960Z,95119.69
2022-11-22T12:25:37.639Z,95121.00
2022-11-22T12:28:14.322Z,95100.69
2022-11-22T12:30:43.166Z,95073.50
2022-11-22T12:33:19.099Z,95101.59
2022-11-22T12:35:46.387Z,95096.13
2022-11-22T12:38:18.737Z,95074.38
2022-11-22T12:40:49.891Z,95070.72
2022-11-22T12:43:30.777Z,95073.06
2022-11-22T12:46:10.031Z,95075.34
2022-11-22T12:48:23.758Z,95152.31
2022-11-22T12:48:54.896Z,95060.63
2022-11-22T12:51:45.548Z,95040.78
2022-11-22T12:54:19.970Z,95014.47
2022-11-22T12:56:53.524Z,95040.03
2022-11-22T12:59:44.240Z,95036.09
2022-11-22T13:02:31.317Z,95036.44
2022-11-22T13:05:07.607Z,95002.88
2022-11-22T13:07:49.867Z,94999.69
2022-11-22T13:10:28.279Z,94995.75
2022-11-22T13:12:57.304Z,94979.84
2022-11-22T13:15:30.165Z,94960.13
2022-11-22T13:17:57.376Z,94955.16
2022-11-22T13:20:29.092Z,94952.91
2022-11-22T13:23:44.910Z,94935.31
2022-11-22T13:26:21.740Z,94917.13
2022-11-22T13:28:50.171Z,94910.66
2022-11-22T13:31:19.596Z,94901.69
2022-11-22T13:33:58.291Z,94876.41
2022-11-22T13:36:27.739Z,94857.31
2022-11-22T13:38:57.716Z,94869.25
2022-11-22T13:41:51.685Z,94813.50
2022-11-22T13:44:33.772Z,94770.41
2022-11-22T13:47:23.261Z,94748.72
2022-11-22T13:49:51.197Z,94755.63
2022-11-22T13:52:17.998Z,94724.63
2022-11-22T13:54:47.804Z,94707.34
2022-11-22T13:57:31.731Z,94686.81
2022-11-22T14:00:16.882Z,94689.41
2022-11-22T14:03:11.473Z,94691.81
2022-11-22T14:05:42.081Z,94682.78
2022-11-22T14:08:40.439Z,94678.94
2022-11-22T14:11:16.946Z,94683.38
2022-11-22T14:14:34.674Z,94685.91
2022-11-22T14:17:35.673Z,94683.13
2022-11-22T14:20:44.443Z,94691.97
2022-11-22T14:23:30.180Z,94690.16
2022-11-22T14:26:02.062Z,94695.78
2022-11-22T14:28:46.731Z,94700.91
2022-11-22T14:31:27.396Z,94700.28
2022-11-22T14:34:15.716Z,94718.34
2022-11-22T14:36:42.539Z,94713.47
2022-11-22T14:39:54.192Z,94736.38
2022-11-22T14:42:36.422Z,94721.63
2022-11-22T14:45:12.160Z,94727.56
2022-11-22T14:47:53.707Z,94720.88
2022-11-22T14:50:26.209Z,94728.94
2022-11-22T14:52:59.477Z,94724.25
2022-11-22T14:55:35.465Z,94735.44
2022-11-22T14:58:06.247Z,94731.53
2022-11-22T15:01:13.173Z,94721.94
2022-11-22T15:09:16.277Z,94704.75
2022-11-22T15:09:20.790Z,94707.22
2022-11-22T15:10:24.314Z,94716.69
2022-11-22T15:13:27.776Z,94698.66
2022-11-22T15:57:29.896Z,94692.28
2022-11-22T15:59:57.612Z,94695.19
2022-11-22T16:02:29.455Z,94682.28
2022-11-22T16:06:03.489Z,94688.19
2022-11-22T16:07:52.908Z,94685.22
2022-11-22T16:10:49.154Z,94690.78
2022-11-22T16:13:19.040Z,94688.16
2022-11-22T16:16:06.060Z,94695.63
2022-11-22T16:18:33.212Z,94695.56
2022-11-22T16:21:02.801Z,94695.19
2022-11-22T16:23:31.929Z,94695.19
2022-11-22T16:26:17.484Z,94691.13
2022-11-22T16:28:44.978Z,94697.78
2022-11-22T16:31:26.201Z,94695.56
2022-11-22T16:33:55.636Z,94696.63
2022-11-22T16:36:24.736Z,94690.31
2022-11-22T16:38:51.821Z,94692.63
2022-11-22T16:41:22.317Z,94694.81
2022-11-22T16:43:52.904Z,94697.72
2022-11-22T16:46:19.829Z,94692.16
2022-11-22T16:48:47.132Z,94687.00
2022-11-22T16:51:16.951Z,94690.72
2022-11-22T16:53:45.939Z,94691.13
2022-11-22T16:56:24.692Z,94692.22
2022-11-22T16:58:53.076Z,94690.72
2022-11-22T17:01:26.571Z,94686.66
2022-11-22T17:03:56.028Z,94685.16
2022-11-22T17:06:25.117Z,94687.06
2022-11-22T17:08:54.409Z,94691.47
2022-11-22T17:11:30.580Z,94682.97
2022-11-22T17:13:58.116Z,94685.56
2022-11-22T17:16:24.875Z,94690.41
2022-11-22T17:18:53.144Z,94681.56
2022-11-22T17:21:37.351Z,94681.56
2022-11-22T17:24:06.909Z,94683.03
2022-11-22T17:26:34.917Z,94693.06
2022-11-22T17:29:01.977Z,94689.75
2022-11-22T17:31:29.251Z,94700.47
2022-11-22T17:33:58.514Z,94709.38
2022-11-22T17:36:29.831Z,94707.94
2022-11-22T17:38:58.091Z,94715.28
2022-11-22T17:41:24.935Z,94722.28
2022-11-22T17:43:52.337Z,94716.47
2022-11-22T17:46:20.151Z,94731.97
2022-11-22T17:48:58.862Z,94732.38
2022-11-22T17:51:29.361Z,94731.63
2022-11-22T17:53:58.368Z,94728.25
2022-11-22T17:56:26.086Z,94734.88
2022-11-22T17:58:53.108Z,94726.81
2022-11-22T18:01:22.251Z,94738.63
2022-11-22T18:03:49.579Z,94734.97
2022-11-22T18:06:17.537Z,94732.31
2022-11-22T18:08:47.177Z,94727.91
2022-11-22T18:11:15.129Z,94727.91
2022-11-22T18:13:42.304Z,94736.41
2022-11-22T18:16:18.305Z,94733.47
2022-11-22T18:19:01.256Z,94735.72
2022-11-22T18:21:30.075Z,94743.47
2022-11-22T18:24:00.886Z,94747.56
2022-11-22T18:26:43.387Z,94749.75
2022-11-22T18:29:41.755Z,94751.22
2022-11-22T18:31:59.652Z,94754.56
2022-11-22T18:34:26.521Z,94750.50
2022-11-22T18:36:57.454Z,94754.97
2022-11-22T18:39:28.645Z,94757.97
2022-11-22T18:41:55.670Z,94761.28
2022-11-22T18:44:22.425Z,94762.72
2022-11-22T18:46:49.191Z,94769.78
2022-11-22T18:49:15.925Z,94767.94
2022-11-22T18:51:42.660Z,94766.03
2022-11-22T18:54:12.916Z,94756.44
2022-11-22T18:56:40.920Z,94759.44
2022-11-22T18:59:12.717Z,94762.09
2022-11-22T19:01:40.709Z,94778.31
2022-11-22T19:04:08.035Z,94777.59
2022-11-22T19:06:34.732Z,94790.84
2022-11-22T19:09:02.493Z,94777.84
2022-11-22T19:11:31.832Z,94770.50
2022-11-22T19:13:58.736Z,94781.94
2022-11-22T19:16:28.077Z,94775.69
2022-11-22T19:18:55.037Z,94773.47
2022-11-22T19:21:24.099Z,94774.94
2022-11-22T19:23:51.025Z,94776.47
2022-11-22T19:26:20.654Z,94777.22
2022-11-22T19:28:48.787Z,94784.59
2022-11-22T19:31:20.898Z,94791.91
2022-11-22T19:33:48.431Z,94776.41
2022-11-22T19:36:32.274Z,94775.25
2022-11-22T19:39:00.464Z,94773.47
2022-11-22T19:41:27.249Z,94771.94
2022-11-22T19:43:56.208Z,94772.69
2022-11-22T19:46:23.532Z,94771.63
2022-11-22T19:48:54.867Z,94769.78
2022-11-22T19:51:22.703Z,94772.34
2022-11-22T19:53:53.621Z,94765.28
2022-11-22T19:56:20.885Z,94754.56
2022-11-22T19:58:52.852Z,94753.81
2022-11-22T20:01:20.792Z,94754.63
2022-11-22T20:03:52.363Z,94762.09
2022-11-22T20:06:19.778Z,94770.63
2022-11-22T20:08:46.635Z,94779.13
2022-11-22T20:11:17.039Z,94783.19
2022-11-22T20:13:46.503Z,94778.84
2022-11-22T20:16:24.914Z,94787.59
2022-11-22T20:19:02.827Z,94787.91
2022-11-22T20:21:31.702Z,94789.75
2022-11-22T20:23:58.827Z,94792.34
2022-11-22T20:26:26.524Z,94789.44
2022-11-22T20:28:58.657Z,94787.59
2022-11-22T20:31:26.079Z,94798.69
2022-11-22T20:33:54.314Z,94797.88
2022-11-22T20:36:23.704Z,94791.63
2022-11-22T20:38:51.184Z,94792.78
2022-11-22T20:41:20.943Z,94795.69
2022-11-22T20:43:49.469Z,94795.31
2022-11-22T20:46:18.744Z,94803.53
2022-11-22T20:48:47.189Z,94810.91
2022-11-22T20:51:16.651Z,94814.59
2022-11-22T20:53:43.880Z,94827.16
2022-11-22T20:56:11.995Z,94831.19
2022-11-22T20:58:38.775Z,94832.31
2022-11-22T21:01:07.403Z,94834.91
2022-11-22T21:03:34.808Z,94835.66
2022-11-22T21:06:02.606Z,94839.75
2022-11-22T21:08:29.770Z,94842.31
2022-11-22T21:11:17.847Z,94845.31
2022-11-22T21:13:45.617Z,94837.91
2022-11-22T21:16:23.477Z,94839.72
2022-11-22T21:18:51.833Z,94839.38
2022-11-22T21:21:24.728Z,94844.53
2022-11-22T21:23:53.634Z,94856.00
2022-11-22T21:26:22.096Z,94853.84
2022-11-22T21:28:49.698Z,94850.47
2022-11-22T21:31:16.999Z,94851.63
2022-11-22T21:33:44.047Z,94854.56
2022-11-22T21:36:10.761Z,94865.66
2022-11-22T21:38:40.521Z,94862.75
2022-11-22T21:41:38.124Z,94869.75
2022-11-22T21:43:56.999Z,94866.00
2022-11-22T21:46:25.145Z,94865.25
2022-11-22T21:48:52.498Z,94867.91
2022-11-22T21:51:19.234Z,94871.25
2022-11-22T21:53:45.951Z,94876.00
2022-11-22T21:56:12.682Z,94874.19
2022-11-22T21:58:39.367Z,94867.50
2022-11-22T22:01:10.868Z,94867.09
2022-11-22T22:03:40.557Z,94872.66
2022-11-22T22:06:07.716Z,94869.69
2022-11-22T22:08:34.513Z,94872.56
2022-11-22T22:11:04.063Z,94871.41
2022-11-22T22:13:31.228Z,94870.59
2022-11-22T22:15:59.774Z,94870.25
2022-11-22T22:18:37.573Z,94874.78
2022-11-22T22:21:11.702Z,94875.94
2022-11-22T22:23:39.802Z,94872.97
2022-11-22T22:26:08.811Z,94880.34
2022-11-22T22:28:37.164Z,94883.66
2022-11-22T22:31:09.618Z,94885.47
2022-11-22T22:33:38.576Z,94875.91
2022-11-22T22:36:06.520Z,94888.38
2022-11-22T22:38:33.672Z,94895.53
2022-11-22T22:41:02.385Z,94894.06
2022-11-22T22:43:38.240Z,94901.00
2022-11-22T22:46:11.624Z,94904.72
2022-11-22T22:48:38.638Z,94900.25
2022-11-22T22:51:09.681Z,94902.16
2022-11-22T22:53:36.363Z,94918.31
2022-11-22T22:56:03.651Z,94914.22
2022-11-22T22:58:30.278Z,94912.06
2022-11-22T23:01:17.743Z,94912.84
2022-11-22T23:03:51.693Z,94918.38
2022-11-22T23:06:18.848Z,94919.06
2022-11-22T23:08:47.963Z,94917.53
2022-11-22T23:11:15.415Z,94913.16
2022-11-22T23:13:42.917Z,94912.09
2022-11-22T23:16:12.703Z,94923.25
2022-11-22T23:18:41.825Z,94924.75
2022-11-22T23:21:12.465Z,94919.91
2022-11-22T23:23:39.399Z,94926.91
2022-11-22T23:26:09.572Z,94937.31
2022-11-22T23:28:36.696Z,94923.75
2022-11-22T23:31:07.523Z,94925.56
2022-11-22T23:33:34.692Z,94934.81
2022-11-22T23:36:06.002Z,94932.22
2022-11-22T23:38:33.097Z,94940.38
2022-11-22T23:40:59.965Z,94934.06
2022-11-22T23:43:27.210Z,94939.63
2022-11-22T23:45:53.996Z,94942.22
2022-11-22T23:48:20.708Z,94938.59
2022-11-22T23:50:47.511Z,94935.13
2022-11-22T23:53:14.237Z,94931.00
2022-11-22T23:55:40.856Z,94920.31
2022-11-22T23:58:07.680Z,94917.31
